Terminal Aerodrome Forecast
Issued by NWS

Home | Current Version | Previous Version | Text Only | Print | Product List | Glossary On
Versions: 1 2 3 4 5 6 7 8 9 10 11 12 13
000
FTUS44 KTSA 211120
TAFBVO
TAF
KBVO 211120Z 2112/2212 19006KT P6SM SCT250
     FM211700 18012G18KT P6SM SCT050 SCT250
     FM220000 17005KT P6SM BKN250 PROB30 2209/2212 6SM -TSRA
      BKN050CB=

USA.gov is the U.S. government's official web portal to all federal, state and local government web resources and services.